Time;durP1;ratioP1;P1;durP2;ratioP2;P2;SDS_P1;SDS_P2;PMS_P1;PMS_P2;Temp;Humidity;BMP_temperature;BMP_pressure;BME280_temperature;BME280_humidity;BME280_pressure;Samples;Min_cycle;Max_cycle;Signal;HPM_P1;HPM_P2
2023/12/23 00:02:13;;;;;;;7.85;1.63;;;;;;;-143.54;100.00;59916.91;5093017;28;20031;-81
2023/12/23 00:04:38;;;;;;;13.80;2.30;;;;;;;-143.54;100.00;59916.91;5096275;28;20030;-81
2023/12/23 00:07:03;;;;;;;10.18;1.83;;;;;;;-143.54;100.00;59916.91;5091550;28;20028;-81
2023/12/23 00:09:29;;;;;;;7.80;1.80;;;;;;;-143.54;100.00;59916.91;5102027;28;20487;-81
2023/12/23 00:11:54;;;;;;;10.52;1.75;;;;;;;-143.54;100.00;59916.91;5103706;28;20377;-81
2023/12/23 00:14:20;;;;;;;9.27;2.03;;;;;;;-143.54;100.00;59916.91;5096718;28;20039;-81
2023/12/23 00:16:45;;;;;;;11.20;1.98;;;;;;;-143.54;100.00;59916.91;5101996;28;20030;-81
2023/12/23 00:19:10;;;;;;;10.65;1.98;;;;;;;-143.54;100.00;59916.91;5102981;28;20031;-81
2023/12/23 00:21:36;;;;;;;14.10;2.50;;;;;;;-143.54;100.00;59916.91;5093021;28;20487;-81
2023/12/23 00:24:01;;;;;;;16.42;2.72;;;;;;;-143.54;100.00;59916.91;5102648;28;20051;-81
2023/12/23 00:26:27;;;;;;;9.98;2.25;;;;;;;-143.54;100.00;59916.91;5095498;28;20028;-81
2023/12/23 00:28:52;;;;;;;8.40;2.28;;;;;;;-143.54;100.00;59916.91;5101788;28;20114;-81
2023/12/23 00:31:18;;;;;;;8.90;2.28;;;;;;;-143.54;100.00;59916.91;5096744;28;20027;-81
2023/12/23 00:33:44;;;;;;;8.00;2.30;;;;;;;-143.54;100.00;59916.91;5098979;28;20024;-81
2023/12/23 00:36:10;;;;;;;7.85;2.90;;;;;;;-143.54;100.00;59916.91;5098766;28;20024;-80
2023/12/23 00:38:35;;;;;;;17.30;3.00;;;;;;;-143.54;100.00;59916.91;5096023;28;20138;-80
2023/12/23 00:41:01;;;;;;;13.38;3.78;;;;;;;-143.54;100.00;59916.91;5100416;28;20061;-81
2023/12/23 00:43:26;;;;;;;17.02;3.53;;;;;;;-143.54;100.00;59916.91;5096382;28;20039;-81
2023/12/23 00:45:51;;;;;;;18.38;4.20;;;;;;;-143.54;100.00;59916.91;5099754;28;20480;-80
2023/12/23 00:48:17;;;;;;;21.30;4.55;;;;;;;-143.54;100.00;59916.91;5092333;28;20172;-81
2023/12/23 00:50:42;;;;;;;20.08;4.80;;;;;;;-143.54;100.00;59916.91;5101690;28;20095;-80
2023/12/23 00:53:07;;;;;;;25.25;4.20;;;;;;;-143.54;100.00;59916.91;5095536;28;20480;-81
2023/12/23 00:55:33;;;;;;;22.08;4.55;;;;;;;-143.54;100.00;59916.91;5098863;28;20085;-80
2023/12/23 00:57:58;;;;;;;13.00;3.70;;;;;;;-143.54;100.00;59916.91;5095832;28;20475;-80
2023/12/23 01:00:23;;;;;;;14.40;3.88;;;;;;;-143.54;100.00;59916.91;5098591;28;20036;-80
2023/12/23 01:02:49;;;;;;;25.80;4.20;;;;;;;-143.54;100.00;59916.91;5095573;28;20098;-80
2023/12/23 01:05:14;;;;;;;26.55;4.43;;;;;;;-143.54;100.00;59916.91;5097994;28;20600;-80
2023/12/23 01:07:41;;;;;;;28.70;3.55;;;;;;;-143.54;100.00;59916.91;5094008;28;20032;-80
2023/12/23 01:10:07;;;;;;;20.10;3.80;;;;;;;-143.54;100.00;59916.91;5099269;28;20039;-80
2023/12/23 01:12:32;;;;;;;15.13;3.85;;;;;;;-143.54;100.00;59916.91;5096571;28;20043;-80
2023/12/23 01:14:58;;;;;;;27.27;4.03;;;;;;;-143.54;100.00;59916.91;5097994;28;20028;-80
2023/12/23 01:17:23;;;;;;;14.98;4.30;;;;;;;-143.54;100.00;59916.91;5097286;28;20383;-81
2023/12/23 01:19:48;;;;;;;17.55;3.55;;;;;;;-143.54;100.00;59916.91;5100935;28;20094;-80
2023/12/23 01:22:13;;;;;;;17.17;3.40;;;;;;;-143.54;100.00;59916.91;5098223;28;20023;-80
2023/12/23 01:24:39;;;;;;;13.75;3.17;;;;;;;-143.54;100.00;59916.91;5100320;28;20481;-80
2023/12/23 01:27:04;;;;;;;12.55;2.90;;;;;;;-143.54;100.00;59916.91;5105263;28;20024;-80
2023/12/23 01:29:29;;;;;;;13.77;3.70;;;;;;;-143.54;100.00;59916.91;5102692;28;20030;-80
2023/12/23 01:31:55;;;;;;;17.77;3.75;;;;;;;-143.54;100.00;59916.91;5100111;28;20467;-80
2023/12/23 01:34:20;;;;;;;14.90;3.58;;;;;;;-143.54;100.00;59916.91;5102662;28;20024;-80
2023/12/23 01:36:45;;;;;;;16.02;3.20;;;;;;;-143.54;100.00;59916.91;5103656;28;20035;-80
2023/12/23 01:39:10;;;;;;;19.23;3.75;;;;;;;-143.54;100.00;59916.91;5107618;28;20506;-80
2023/12/23 01:41:36;;;;;;;11.40;3.00;;;;;;;-143.54;100.00;59916.91;5104740;28;20046;-80
2023/12/23 01:44:01;;;;;;;13.85;3.28;;;;;;;-143.54;100.00;59916.91;5101500;28;20103;-80
2023/12/23 01:46:27;;;;;;;17.95;3.33;;;;;;;-143.54;100.00;59916.91;5102100;28;20016;-80
2023/12/23 01:48:55;;;;;;;16.08;3.45;;;;;;;-143.54;100.00;59916.91;5093373;28;20077;-80
2023/12/23 01:51:21;;;;;;;12.75;2.85;;;;;;;-143.54;100.00;59916.91;5099372;28;20024;-80
2023/12/23 01:53:47;;;;;;;13.80;3.42;;;;;;;-143.54;100.00;59916.91;5103076;28;20024;-81
2023/12/23 01:56:13;;;;;;;18.25;3.53;;;;;;;-143.54;100.00;59916.91;5103006;28;20029;-81
2023/12/23 01:58:39;;;;;;;11.57;2.95;;;;;;;-143.54;100.00;59916.91;5099891;28;20062;-81
2023/12/23 02:01:04;;;;;;;14.00;3.88;;;;;;;-143.54;100.00;59916.91;5088415;28;20468;-81
2023/12/23 02:03:31;;;;;;;12.43;2.97;;;;;;;-143.54;100.00;59916.91;5101846;28;20105;-81
2023/12/23 02:05:56;;;;;;;15.32;3.83;;;;;;;-143.54;100.00;59916.91;5098042;28;20035;-80
2023/12/23 02:08:22;;;;;;;11.85;3.13;;;;;;;-143.54;100.00;59916.91;5102051;28;20020;-80
2023/12/23 02:10:53;;;;;;;17.58;3.17;;;;;;;-143.54;100.00;59916.91;5108220;28;20031;-81
2023/12/23 02:13:25;;;;;;;13.43;3.40;;;;;;;-143.54;100.00;59916.91;5101229;28;20491;-80
2023/12/23 02:15:52;;;;;;;14.65;3.28;;;;;;;-143.54;100.00;59916.91;5097316;28;20459;-81
2023/12/23 02:18:19;;;;;;;14.70;3.47;;;;;;;-143.54;100.00;59916.91;5098804;28;20035;-81
2023/12/23 02:20:51;;;;;;;17.02;3.00;;;;;;;-143.54;100.00;59916.91;5103439;28;20028;-81
2023/12/23 02:23:17;;;;;;;13.07;3.70;;;;;;;-143.54;100.00;59916.91;5099549;28;20130;-81
2023/12/23 02:25:45;;;;;;;16.75;3.45;;;;;;;-143.54;100.00;59916.91;5103870;28;20028;-81
2023/12/23 02:28:14;;;;;;;15.77;4.40;;;;;;;-143.54;100.00;59916.91;5099464;28;20167;-82
2023/12/23 02:30:43;;;;;;;18.02;4.53;;;;;;;-143.54;100.00;59916.91;5103291;28;20040;-81
2023/12/23 02:33:09;;;;;;;21.75;4.65;;;;;;;-143.54;100.00;59916.91;5099012;28;20036;-81
2023/12/23 02:35:34;;;;;;;12.88;3.70;;;;;;;-143.54;100.00;59916.91;5090759;28;20091;-80
2023/12/23 02:38:00;;;;;;;19.98;4.30;;;;;;;-143.54;100.00;59916.91;5094207;28;20430;-81
2023/12/23 02:40:25;;;;;;;23.48;4.63;;;;;;;-143.54;100.00;59916.91;5091985;28;20052;-81
2023/12/23 02:42:51;;;;;;;20.15;4.18;;;;;;;-143.54;100.00;59916.91;5098874;28;20417;-81
2023/12/23 02:45:16;;;;;;;17.23;4.50;;;;;;;-143.54;100.00;59916.91;5097256;28;20437;-80
2023/12/23 02:47:43;;;;;;;27.55;4.93;;;;;;;-143.54;100.00;59916.91;5094427;28;20028;-80
2023/12/23 02:50:08;;;;;;;14.90;4.03;;;;;;;-143.54;100.00;59916.91;5100855;28;20482;-80
2023/12/23 02:52:34;;;;;;;16.40;3.60;;;;;;;-143.54;100.00;59916.91;5098538;28;20027;-81
2023/12/23 02:54:59;;;;;;;15.02;3.70;;;;;;;-143.54;100.00;59916.91;5100693;28;20031;-80
2023/12/23 02:57:24;;;;;;;14.30;3.92;;;;;;;-143.54;100.00;59916.91;5099158;28;20043;-81
2023/12/23 02:59:50;;;;;;;10.98;3.33;;;;;;;-143.54;100.00;59916.91;5102756;28;20116;-80
2023/12/23 03:02:15;;;;;;;18.48;3.22;;;;;;;-143.54;100.00;59916.91;5092922;28;20024;-80
2023/12/23 03:04:40;;;;;;;14.57;3.28;;;;;;;-143.54;100.00;59916.91;5102556;28;20035;-80
2023/12/23 03:07:05;;;;;;;17.63;3.35;;;;;;;-143.54;100.00;59916.91;5095483;28;20031;-81
2023/12/23 03:09:31;;;;;;;16.73;3.03;;;;;;;-143.54;100.00;59916.91;5097591;28;20024;-80
2023/12/23 03:11:56;;;;;;;17.77;3.58;;;;;;;-143.54;100.00;59916.91;5104048;28;20030;-80
2023/12/23 03:14:21;;;;;;;19.60;2.75;;;;;;;-143.54;100.00;59916.91;5103487;28;20026;-81
2023/12/23 03:16:47;;;;;;;14.20;2.72;;;;;;;-143.54;100.00;59916.91;5095241;28;20016;-81
2023/12/23 03:19:12;;;;;;;11.98;3.97;;;;;;;-143.54;100.00;59916.91;5101628;28;20066;-80
2023/12/23 03:21:44;;;;;;;20.30;3.33;;;;;;;-143.54;100.00;59916.91;5102328;28;20450;-80
2023/12/23 03:24:10;;;;;;;14.18;3.33;;;;;;;-143.54;100.00;59916.91;5100392;28;20115;-80
2023/12/23 03:26:35;;;;;;;15.38;3.10;;;;;;;-143.54;100.00;59916.91;5102314;28;20115;-80
2023/12/23 03:29:01;;;;;;;15.52;3.17;;;;;;;-143.54;100.00;59916.91;5100478;28;20022;-80
2023/12/23 03:31:26;;;;;;;18.17;3.00;;;;;;;-143.54;100.00;59916.91;5101705;28;20058;-80
2023/12/23 03:33:51;;;;;;;14.25;3.20;;;;;;;-143.54;100.00;59916.91;5098577;28;20488;-80
2023/12/23 03:36:17;;;;;;;12.88;3.15;;;;;;;-143.54;100.00;59916.91;5088472;28;20121;-81
2023/12/23 03:38:43;;;;;;;18.88;3.80;;;;;;;-143.54;100.00;59916.91;5092380;28;20039;-81
2023/12/23 03:41:10;;;;;;;17.60;3.63;;;;;;;-143.54;100.00;59916.91;5102603;28;20024;-80
2023/12/23 03:43:35;;;;;;;13.80;3.22;;;;;;;-143.54;100.00;59916.91;5090895;28;20476;-80
2023/12/23 03:46:01;;;;;;;16.13;3.63;;;;;;;-143.54;100.00;59916.91;5102725;28;20032;-81
2023/12/23 03:48:26;;;;;;;12.38;3.03;;;;;;;-143.54;100.00;59916.91;5082656;28;20383;-80
2023/12/23 03:50:51;;;;;;;15.80;3.53;;;;;;;-143.54;100.00;59916.91;5098079;28;20390;-80
2023/12/23 03:53:17;;;;;;;11.38;3.25;;;;;;;-143.54;100.00;59916.91;5091862;28;20782;-81
2023/12/23 03:55:42;;;;;;;15.25;3.33;;;;;;;-143.54;100.00;59916.91;5102068;28;20042;-80
2023/12/23 03:58:07;;;;;;;17.15;4.13;;;;;;;-143.54;100.00;59916.91;5099040;28;20032;-81
2023/12/23 04:00:33;;;;;;;13.45;3.75;;;;;;;-143.54;100.00;59916.91;5095677;28;20097;-80
2023/12/23 04:02:58;;;;;;;10.90;3.50;;;;;;;-143.54;100.00;59916.91;5099116;28;20383;-81
2023/12/23 04:05:23;;;;;;;12.55;3.70;;;;;;;-143.54;100.00;59916.91;5101180;28;20063;-80
2023/12/23 04:07:50;;;;;;;14.30;4.55;;;;;;;-143.54;100.00;59916.91;5098736;28;20016;-81
2023/12/23 04:10:16;;;;;;;18.40;4.57;;;;;;;-143.54;100.00;59916.91;5096629;28;20027;-80
2023/12/23 04:12:42;;;;;;;14.70;4.18;;;;;;;-143.54;100.00;59916.91;5099532;28;20472;-80
2023/12/23 04:15:08;;;;;;;12.82;3.58;;;;;;;-143.54;100.00;59916.91;5092074;28;20039;-81
2023/12/23 04:17:34;;;;;;;8.10;3.20;;;;;;;-143.54;100.00;59916.91;5082716;28;20028;-81
2023/12/23 04:19:59;;;;;;;10.15;3.30;;;;;;;-143.54;100.00;59916.91;5089937;28;20024;-80
2023/12/23 04:22:24;;;;;;;14.50;3.83;;;;;;;-143.54;100.00;59916.91;5096780;28;20038;-81
2023/12/23 04:24:50;;;;;;;12.27;3.28;;;;;;;-143.54;100.00;59916.91;5096734;28;20453;-80
2023/12/23 04:27:15;;;;;;;15.57;3.53;;;;;;;-143.54;100.00;59916.91;5105318;28;20032;-80
2023/12/23 04:29:40;;;;;;;12.52;3.13;;;;;;;-143.54;100.00;59916.91;5096710;28;20020;-80
2023/12/23 04:32:06;;;;;;;7.55;3.03;;;;;;;-143.54;100.00;59916.91;5101251;28;20084;-80
2023/12/23 04:34:31;;;;;;;10.95;2.83;;;;;;;-143.54;100.00;59916.91;5101743;28;20030;-80
2023/12/23 04:36:57;;;;;;;13.43;3.33;;;;;;;-143.54;100.00;59916.91;5102861;28;20080;-80
2023/12/23 04:39:22;;;;;;;13.82;3.45;;;;;;;-143.54;100.00;59916.91;5097234;28;20031;-80
2023/12/23 04:41:48;;;;;;;15.43;3.05;;;;;;;-143.54;100.00;59916.91;5099597;28;20073;-81
2023/12/23 04:44:14;;;;;;;11.05;3.17;;;;;;;-143.54;100.00;59916.91;5097411;28;20474;-80
2023/12/23 04:46:41;;;;;;;12.43;3.03;;;;;;;-143.54;100.00;59916.91;5092534;28;20020;-80
2023/12/23 04:49:07;;;;;;;12.52;3.17;;;;;;;-143.54;100.00;59916.91;5096364;28;20027;-80
2023/12/23 04:51:32;;;;;;;11.88;3.55;;;;;;;-143.54;100.00;59916.91;5099548;28;20486;-80
2023/12/23 04:53:57;;;;;;;15.85;3.22;;;;;;;-143.54;100.00;59916.91;5093514;28;20020;-81
2023/12/23 04:56:23;;;;;;;10.43;2.78;;;;;;;-143.54;100.00;59916.91;5102036;28;20191;-81
2023/12/23 04:58:48;;;;;;;11.95;3.15;;;;;;;-143.54;100.00;59916.91;5094697;28;20051;-80
2023/12/23 05:01:14;;;;;;;11.45;3.28;;;;;;;-143.54;100.00;59916.91;5107540;28;20019;-80
2023/12/23 05:03:40;;;;;;;16.60;3.92;;;;;;;-143.54;100.00;59916.91;5102774;28;20472;-80
2023/12/23 05:06:06;;;;;;;10.98;3.05;;;;;;;-143.54;100.00;59916.91;5107832;28;20126;-81
2023/12/23 05:08:32;;;;;;;13.88;3.28;;;;;;;-143.54;100.00;59916.91;5102720;28;20375;-80
2023/12/23 05:10:58;;;;;;;12.52;2.95;;;;;;;-143.54;100.00;59916.91;5108413;28;20023;-81
2023/12/23 05:13:23;;;;;;;10.55;2.90;;;;;;;-143.54;100.00;59916.91;5104127;28;20027;-80
2023/12/23 05:15:49;;;;;;;11.30;2.75;;;;;;;-143.54;100.00;59916.91;5102852;28;20367;-81
2023/12/23 05:18:14;;;;;;;10.57;2.97;;;;;;;-143.54;100.00;59916.91;5105608;28;20036;-80
2023/12/23 05:20:39;;;;;;;12.85;3.20;;;;;;;-143.54;100.00;59916.91;5101836;28;20020;-80
2023/12/23 05:23:04;;;;;;;13.88;2.67;;;;;;;-143.54;100.00;59916.91;5104296;28;20085;-80
2023/12/23 05:25:30;;;;;;;12.45;2.78;;;;;;;-143.54;100.00;59916.91;5108054;28;20040;-80
2023/12/23 05:27:55;;;;;;;11.57;3.03;;;;;;;-143.54;100.00;59916.91;5101703;28;20016;-80
2023/12/23 05:30:20;;;;;;;10.65;2.75;;;;;;;-143.54;100.00;59916.91;5104894;28;20032;-80
2023/12/23 05:32:46;;;;;;;12.25;3.08;;;;;;;-143.54;100.00;59916.91;5095886;28;20151;-81
2023/12/23 05:35:11;;;;;;;10.38;3.10;;;;;;;-143.54;100.00;59916.91;5108671;28;20387;-79
2023/12/23 05:37:36;;;;;;;11.63;3.05;;;;;;;-143.54;100.00;59916.91;5106692;28;20040;-80
2023/12/23 05:40:02;;;;;;;11.50;3.10;;;;;;;-143.54;100.00;59916.91;5102298;28;20022;-81
2023/12/23 05:42:27;;;;;;;14.73;3.20;;;;;;;-143.54;100.00;59916.91;5108489;28;20459;-80
2023/12/23 05:44:52;;;;;;;12.80;2.63;;;;;;;-143.54;100.00;59916.91;5102172;28;20490;-80
2023/12/23 05:47:18;;;;;;;12.30;3.33;;;;;;;-143.54;100.00;59916.91;5105877;28;20027;-80
2023/12/23 05:49:43;;;;;;;10.07;2.92;;;;;;;-143.54;100.00;59916.91;5102208;28;20099;-81
2023/12/23 05:52:08;;;;;;;14.85;3.50;;;;;;;-143.54;100.00;59916.91;5104853;28;20490;-81
2023/12/23 05:54:34;;;;;;;13.27;3.22;;;;;;;-143.54;100.00;59916.91;5098624;28;20032;-80
2023/12/23 05:56:59;;;;;;;11.60;3.00;;;;;;;-143.54;100.00;59916.91;5110695;28;20040;-80
2023/12/23 05:59:24;;;;;;;9.75;2.90;;;;;;;-143.54;100.00;59916.91;5107292;28;20107;-80
2023/12/23 06:01:50;;;;;;;8.35;2.97;;;;;;;-143.54;100.00;59916.91;5096860;28;20032;-80
2023/12/23 06:04:16;;;;;;;9.60;2.95;;;;;;;-143.54;100.00;59916.91;5099519;28;20379;-81
2023/12/23 06:06:41;;;;;;;13.02;3.50;;;;;;;-143.54;100.00;59916.91;5103000;28;20064;-81
2023/12/23 06:09:07;;;;;;;10.85;3.00;;;;;;;-143.54;100.00;59916.91;5097151;28;20078;-80
2023/12/23 06:11:32;;;;;;;9.07;3.00;;;;;;;-143.54;100.00;59916.91;5096898;28;20073;-80
2023/12/23 06:13:58;;;;;;;9.68;2.72;;;;;;;-143.54;100.00;59916.91;5103767;28;20459;-81
2023/12/23 06:16:23;;;;;;;13.93;3.28;;;;;;;-143.54;100.00;59916.91;5101239;28;20038;-81
2023/12/23 06:18:49;;;;;;;10.23;2.72;;;;;;;-143.54;100.00;59916.91;5103880;28;20024;-80
2023/12/23 06:21:14;;;;;;;9.35;2.70;;;;;;;-143.54;100.00;59916.91;5099749;28;20060;-80
2023/12/23 06:23:39;;;;;;;15.27;3.17;;;;;;;-143.54;100.00;59916.91;5101947;28;20064;-80
2023/12/23 06:26:05;;;;;;;16.67;3.20;;;;;;;-143.54;100.00;59916.91;5102990;28;20467;-80
2023/12/23 06:28:30;;;;;;;11.40;3.58;;;;;;;-143.54;100.00;59916.91;5097527;28;20089;-80
2023/12/23 06:30:55;;;;;;;15.10;2.97;;;;;;;-143.54;100.00;59916.91;5104837;28;20135;-81
2023/12/23 06:33:20;;;;;;;7.55;2.35;;;;;;;-143.54;100.00;59916.91;5096130;28;20390;-81
2023/12/23 06:35:46;;;;;;;14.35;2.90;;;;;;;-143.54;100.00;59916.91;5103773;28;20406;-80
2023/12/23 06:38:13;;;;;;;19.60;4.15;;;;;;;-143.54;100.00;59916.91;5097569;28;20039;-81
2023/12/23 06:40:39;;;;;;;12.65;3.40;;;;;;;-143.54;100.00;59916.91;5102045;28;20471;-80
2023/12/23 06:43:04;;;;;;;7.75;2.50;;;;;;;-143.54;100.00;59916.91;5098445;28;20035;-81
2023/12/23 06:45:29;;;;;;;14.68;2.95;;;;;;;-143.54;100.00;59916.91;5099787;28;20161;-80
2023/12/23 06:47:55;;;;;;;13.13;2.67;;;;;;;-143.54;100.00;59916.91;5106776;28;20024;-81
2023/12/23 06:50:20;;;;;;;11.60;3.20;;;;;;;-143.54;100.00;59916.91;5097933;28;20468;-81
2023/12/23 06:52:45;;;;;;;12.65;3.67;;;;;;;-143.54;100.00;59916.91;5101755;28;20021;-80
2023/12/23 06:55:11;;;;;;;8.30;2.90;;;;;;;-143.54;100.00;59916.91;5097817;28;20063;-80
2023/12/23 06:57:36;;;;;;;13.20;2.78;;;;;;;-143.54;100.00;59916.91;5093424;28;20040;-80
2023/12/23 07:00:02;;;;;;;12.20;2.92;;;;;;;-143.54;100.00;59916.91;5097149;28;20012;-81
2023/12/23 07:02:27;;;;;;;11.20;2.58;;;;;;;-143.54;100.00;59916.91;5098967;28;20029;-81
2023/12/23 07:04:53;;;;;;;9.63;2.72;;;;;;;-143.54;100.00;59916.91;5097240;28;20059;-80
2023/12/23 07:07:18;;;;;;;13.07;2.60;;;;;;;-143.54;100.00;59916.91;5094743;28;20505;-81
2023/12/23 07:09:43;;;;;;;12.32;2.88;;;;;;;-143.54;100.00;59916.91;5094600;28;20359;-80
2023/12/23 07:12:09;;;;;;;12.15;3.38;;;;;;;-143.54;100.00;59916.91;5096875;28;20028;-81
2023/12/23 07:14:34;;;;;;;16.17;3.30;;;;;;;-143.54;100.00;59916.91;5096453;28;20031;-81
2023/12/23 07:16:59;;;;;;;17.42;3.08;;;;;;;-143.54;100.00;59916.91;5090055;28;20225;-81
2023/12/23 07:19:25;;;;;;;14.60;2.75;;;;;;;-143.54;100.00;59916.91;5095285;28;20097;-81
2023/12/23 07:21:53;;;;;;;10.18;2.38;;;;;;;-143.54;100.00;59916.91;5099755;28;20024;-80
2023/12/23 07:24:19;;;;;;;7.63;2.10;;;;;;;-143.54;100.00;59916.91;5103958;28;20043;-80
2023/12/23 07:26:44;;;;;;;15.63;4.32;;;;;;;-143.54;100.00;59916.91;5101198;28;20451;-81
2023/12/23 07:29:09;;;;;;;10.98;3.42;;;;;;;-143.54;100.00;59916.91;5097991;28;20051;-80
2023/12/23 07:31:35;;;;;;;14.02;3.15;;;;;;;-143.54;100.00;59916.91;5092066;28;20060;-81
2023/12/23 07:34:00;;;;;;;9.60;2.55;;;;;;;-143.54;100.00;59916.91;5088383;28;20513;-80
2023/12/23 07:36:25;;;;;;;10.27;2.65;;;;;;;-143.54;100.00;59916.91;5091600;28;20115;-81
2023/12/23 07:38:51;;;;;;;12.18;3.22;;;;;;;-143.54;100.00;59916.91;5091174;28;20027;-81
2023/12/23 07:41:16;;;;;;;15.70;3.10;;;;;;;-143.54;100.00;59916.91;5094388;28;20040;-81
2023/12/23 07:43:41;;;;;;;14.15;3.33;;;;;;;-143.54;100.00;59916.91;5100492;28;20017;-81
2023/12/23 07:46:08;;;;;;;9.93;2.75;;;;;;;-143.54;100.00;59916.91;5104596;28;20522;-81
2023/12/23 07:48:33;;;;;;;12.77;2.90;;;;;;;-143.54;100.00;59916.91;5097126;28;20024;-80
2023/12/23 07:50:58;;;;;;;13.60;2.75;;;;;;;-143.54;100.00;59916.91;5100545;28;20030;-80
2023/12/23 07:53:24;;;;;;;11.15;3.08;;;;;;;-143.54;100.00;59916.91;5095584;28;20475;-80
2023/12/23 07:55:49;;;;;;;10.38;2.70;;;;;;;-143.54;100.00;59916.91;5100644;28;20489;-81
2023/12/23 07:58:14;;;;;;;9.13;2.15;;;;;;;-143.54;100.00;59916.91;5089448;28;20048;-81
2023/12/23 08:00:40;;;;;;;12.85;3.00;;;;;;;-143.54;100.00;59916.91;5090990;28;20471;-80
2023/12/23 08:03:05;;;;;;;8.13;2.40;;;;;;;-143.54;100.00;59916.91;5099029;28;20361;-81
2023/12/23 08:05:33;;;;;;;14.63;2.65;;;;;;;-143.54;100.00;59916.91;5095563;28;20085;-80
2023/12/23 08:07:58;;;;;;;11.52;2.55;;;;;;;-143.54;100.00;59916.91;5091260;28;20035;-81
2023/12/23 08:10:24;;;;;;;7.60;2.25;;;;;;;-143.54;100.00;59916.91;5094441;28;20399;-80
2023/12/23 08:12:49;;;;;;;11.63;2.10;;;;;;;-143.54;100.00;59916.91;5102639;28;20122;-81
2023/12/23 08:15:14;;;;;;;12.65;2.60;;;;;;;-143.54;100.00;59916.91;5094359;28;20379;-81
2023/12/23 08:17:40;;;;;;;10.18;2.00;;;;;;;-143.54;100.00;59916.91;5100990;28;20506;-81
2023/12/23 08:20:05;;;;;;;10.63;2.65;;;;;;;-143.54;100.00;59916.91;5094920;28;20084;-81
2023/12/23 08:22:31;;;;;;;11.07;2.47;;;;;;;-143.54;100.00;59916.91;5096710;28;20552;-81
2023/12/23 08:24:56;;;;;;;6.30;2.17;;;;;;;-143.54;100.00;59916.91;5096047;28;20040;-81
2023/12/23 08:27:21;;;;;;;7.63;2.00;;;;;;;-143.54;100.00;59916.91;5099729;28;20115;-81
2023/12/23 08:29:47;;;;;;;10.27;1.95;;;;;;;-143.54;100.00;59916.91;5096125;28;20090;-81
2023/12/23 08:32:13;;;;;;;7.15;2.17;;;;;;;-143.54;100.00;59916.91;5102207;28;20019;-81
2023/12/23 08:34:38;;;;;;;9.07;1.98;;;;;;;-143.54;100.00;59916.91;5096346;28;20028;-81
2023/12/23 08:37:03;;;;;;;9.40;2.40;;;;;;;-143.54;100.00;59916.91;5101150;28;20035;-81
2023/12/23 08:39:30;;;;;;;11.43;2.20;;;;;;;-143.54;100.00;59916.91;5088345;28;20548;-81
2023/12/23 08:41:55;;;;;;;10.25;2.20;;;;;;;-143.54;100.00;59916.91;5098877;28;20020;-81
2023/12/23 08:44:21;;;;;;;6.57;2.15;;;;;;;-143.54;100.00;59916.91;5093969;28;20073;-81
2023/12/23 08:46:46;;;;;;;7.80;2.13;;;;;;;-143.54;100.00;59916.91;5095812;28;20467;-81
2023/12/23 08:49:12;;;;;;;8.05;2.25;;;;;;;-143.54;100.00;59916.91;5090522;28;20024;-81
2023/12/23 08:51:38;;;;;;;9.52;2.30;;;;;;;-143.54;100.00;59916.91;5090727;28;20512;-82
2023/12/23 08:54:03;;;;;;;8.40;2.00;;;;;;;-143.54;100.00;59916.91;5088846;28;20035;-81
2023/12/23 08:56:29;;;;;;;7.80;2.10;;;;;;;-143.54;100.00;59916.91;5096754;28;20031;-81
2023/12/23 08:58:54;;;;;;;7.13;2.65;;;;;;;-143.54;100.00;59916.91;5092687;28;20016;-81
2023/12/23 09:01:19;;;;;;;7.63;2.78;;;;;;;-143.54;100.00;59916.91;5101016;28;20378;-81
2023/12/23 09:03:45;;;;;;;10.35;2.58;;;;;;;-143.54;100.00;59916.91;5099216;28;20032;-80
2023/12/23 09:06:12;;;;;;;8.75;2.25;;;;;;;-143.54;100.00;59916.91;5097463;28;20066;-80
2023/12/23 09:08:38;;;;;;;7.28;2.15;;;;;;;-143.54;100.00;59916.91;5094601;28;20020;-80
2023/12/23 09:11:04;;;;;;;6.10;1.80;;;;;;;-143.54;100.00;59916.91;5100149;28;20031;-81
2023/12/23 09:13:30;;;;;;;7.55;2.08;;;;;;;-143.54;100.00;59916.91;5096363;28;20035;-80
2023/12/23 09:15:55;;;;;;;10.55;2.50;;;;;;;-143.54;100.00;59916.91;5095728;28;20032;-81
2023/12/23 09:18:20;;;;;;;8.35;2.45;;;;;;;-143.54;100.00;59916.91;5097099;28;20020;-81
2023/12/23 09:20:46;;;;;;;7.10;2.00;;;;;;;-143.54;100.00;59916.91;5094952;28;20126;-81
2023/12/23 09:23:11;;;;;;;9.60;2.58;;;;;;;-143.54;100.00;59916.91;5097736;28;20084;-80
2023/12/23 09:25:36;;;;;;;10.50;3.05;;;;;;;-143.54;100.00;59916.91;5101868;28;20050;-80
2023/12/23 09:28:02;;;;;;;10.05;2.05;;;;;;;-143.54;100.00;59916.91;5094394;28;20387;-80
2023/12/23 09:30:27;;;;;;;8.68;2.03;;;;;;;-143.54;100.00;59916.91;5094147;28;20088;-80
2023/12/23 09:32:52;;;;;;;7.63;2.92;;;;;;;-143.54;100.00;59916.91;5099267;28;20459;-80
2023/12/23 09:35:18;;;;;;;10.68;2.35;;;;;;;-143.54;100.00;59916.91;5099411;28;20025;-80
2023/12/23 09:37:45;;;;;;;8.32;2.22;;;;;;;-143.54;100.00;59916.91;5106119;28;20031;-80
2023/12/23 09:40:12;;;;;;;6.95;1.95;;;;;;;-143.54;100.00;59916.91;5094767;28;20474;-80
2023/12/23 09:42:38;;;;;;;12.15;2.20;;;;;;;-143.54;100.00;59916.91;5092937;28;20028;-80
2023/12/23 09:45:04;;;;;;;8.88;2.72;;;;;;;-143.54;100.00;59916.91;5098566;28;20027;-80
2023/12/23 09:47:30;;;;;;;7.45;2.33;;;;;;;-143.54;100.00;59916.91;5108455;28;20035;-80
2023/12/23 09:49:55;;;;;;;10.32;2.47;;;;;;;-143.54;100.00;59916.91;5104636;28;20478;-80
2023/12/23 09:52:21;;;;;;;8.55;1.98;;;;;;;-143.54;100.00;59916.91;5109777;28;20099;-80
2023/12/23 09:54:51;;;;;;;9.20;2.53;;;;;;;-143.54;100.00;59916.91;5098360;28;20036;-81
2023/12/23 09:57:18;;;;;;;9.07;2.13;;;;;;;-143.54;100.00;59916.91;5101922;28;20101;-80
2023/12/23 09:59:43;;;;;;;8.65;2.63;;;;;;;-143.54;100.00;59916.91;5099657;28;20028;-81
2023/12/23 10:02:08;;;;;;;9.07;1.92;;;;;;;-143.54;100.00;59916.91;5103912;28;20373;-80
2023/12/23 10:04:34;;;;;;;5.00;2.33;;;;;;;-143.54;100.00;59916.91;5109309;28;20039;-81
2023/12/23 10:06:59;;;;;;;11.43;2.17;;;;;;;-143.54;100.00;59916.91;5098727;28;20024;-81
2023/12/23 10:09:27;;;;;;;7.25;2.20;;;;;;;-143.54;100.00;59916.91;5101602;28;20052;-81
2023/12/23 10:11:52;;;;;;;13.07;2.40;;;;;;;-143.54;100.00;59916.91;5101390;28;20028;-81
2023/12/23 10:14:20;;;;;;;7.38;1.98;;;;;;;-143.54;100.00;59916.91;5095097;28;20043;-81
2023/12/23 10:16:46;;;;;;;14.25;2.40;;;;;;;-143.54;100.00;59916.91;5103015;28;20031;-82
2023/12/23 10:19:11;;;;;;;8.50;2.17;;;;;;;-143.54;100.00;59916.91;5096936;28;20028;-80
2023/12/23 10:21:37;;;;;;;7.97;1.90;;;;;;;-143.54;100.00;59916.91;5098508;28;20062;-80
2023/12/23 10:24:03;;;;;;;6.70;1.98;;;;;;;-143.54;100.00;59916.91;5103967;28;20054;-80
2023/12/23 10:26:29;;;;;;;10.25;2.20;;;;;;;-143.54;100.00;59916.91;5094118;28;20037;-80
2023/12/23 10:29:03;;;;;;;9.05;2.10;;;;;;;-143.54;100.00;59916.91;5095161;28;20485;-79
2023/12/23 10:31:31;;;;;;;6.80;1.80;;;;;;;-143.54;100.00;59916.91;5100253;28;20050;-80
2023/12/23 10:34:00;;;;;;;6.07;2.08;;;;;;;-143.54;100.00;59916.91;5104455;28;20066;-80
2023/12/23 10:36:26;;;;;;;9.98;2.22;;;;;;;-143.54;100.00;59916.91;5101028;28;20058;-79
2023/12/23 10:38:57;;;;;;;9.75;2.05;;;;;;;-143.54;100.00;59916.91;5098158;28;20432;-79
2023/12/23 10:41:49;;;;;;;9.60;2.72;;;;;;;-143.54;100.00;59916.91;5101769;28;20032;-79
2023/12/23 10:44:16;;;;;;;5.72;1.88;;;;;;;-143.54;100.00;59916.91;5106698;28;20030;-80
2023/12/23 10:46:43;;;;;;;5.72;2.15;;;;;;;-143.54;100.00;59916.91;5095354;28;20076;-80
2023/12/23 10:49:10;;;;;;;8.85;2.20;;;;;;;-143.54;100.00;59916.91;5097689;28;20471;-79
2023/12/23 10:51:37;;;;;;;5.57;1.75;;;;;;;-143.54;100.00;59916.91;5095580;28;20034;-79
2023/12/23 10:54:03;;;;;;;6.82;1.98;;;;;;;-143.54;100.00;59916.91;5095649;28;20035;-80
2023/12/23 10:56:29;;;;;;;5.78;1.80;;;;;;;-143.54;100.00;59916.91;5090072;28;20028;-80
2023/12/23 10:58:56;;;;;;;5.22;1.83;;;;;;;-143.54;100.00;59916.91;5093206;28;20482;-80